createdAt,value
2023-05-04T00:02:21.377Z,101378.91
2023-05-04T00:05:12.312Z,101386.66
2023-05-04T00:08:01.540Z,101387.44
2023-05-04T00:10:50.736Z,101379.19
2023-05-04T00:13:41.470Z,101387.31
2023-05-04T00:16:30.913Z,101376.63
2023-05-04T00:19:20.610Z,101376.16
2023-05-04T00:22:10.001Z,101388.59
2023-05-04T00:24:59.568Z,101375.34
2023-05-04T00:27:48.868Z,101377.13
2023-05-04T00:30:39.562Z,101373.22
2023-05-04T00:33:28.984Z,101370.31
2023-05-04T00:36:18.373Z,101370.78
2023-05-04T00:39:07.575Z,101376.63
2023-05-04T00:41:57.186Z,101372.38
2023-05-04T00:44:46.423Z,101387.94
2023-05-04T00:47:37.794Z,101391.31
2023-05-04T00:50:28.214Z,101395.03
2023-05-04T00:53:17.621Z,101391.13
2023-05-04T00:56:09.146Z,101384.31
2023-05-04T00:58:59.241Z,101393.88
2023-05-04T01:01:48.475Z,101401.94
2023-05-04T01:04:39.295Z,101390.94
2023-05-04T01:07:36.319Z,101381.03
2023-05-04T01:10:35.536Z,101375.63
2023-05-04T01:13:25.891Z,101382.75
2023-05-04T01:16:15.741Z,101370.63
2023-05-04T01:19:05.310Z,101370.44
2023-05-04T01:21:56.536Z,101373.50
2023-05-04T01:24:46.620Z,101358.38
2023-05-04T01:27:43.973Z,101365.38
2023-05-04T01:30:39.101Z,101350.34
2023-05-04T01:33:30.522Z,101346.09
2023-05-04T01:36:21.081Z,101347.88
2023-05-04T01:39:11.827Z,101348.69
2023-05-04T01:42:02.203Z,101350.63
2023-05-04T01:44:51.888Z,101348.50
2023-05-04T01:47:41.182Z,101347.03
2023-05-04T01:50:30.817Z,101338.72
2023-05-04T01:53:20.498Z,101331.13
2023-05-04T01:56:11.385Z,101325.94
2023-05-04T01:59:00.673Z,101324.13
2023-05-04T02:01:50.104Z,101324.75
2023-05-04T02:04:39.511Z,101310.03
2023-05-04T02:07:28.817Z,101296.13
2023-05-04T02:10:18.406Z,101294.50
2023-05-04T02:13:09.286Z,101271.63
2023-05-04T02:15:58.741Z,101289.28
2023-05-04T02:18:48.040Z,101269.81
2023-05-04T02:21:38.736Z,101289.78
2023-05-04T02:24:28.450Z,101291.72
2023-05-04T02:27:17.727Z,101292.59
2023-05-04T02:30:10.976Z,101302.75
2023-05-04T02:33:00.327Z,101302.28
2023-05-04T02:35:49.770Z,101278.38
2023-05-04T02:38:39.012Z,101304.81
2023-05-04T02:41:28.544Z,101304.97
2023-05-04T02:44:17.838Z,101314.50
2023-05-04T02:47:08.555Z,101314.97
2023-05-04T02:49:57.806Z,101307.88
2023-05-04T02:52:47.032Z,101280.94
2023-05-04T02:55:36.378Z,101307.50
2023-05-04T02:58:25.796Z,101306.84
2023-05-04T03:01:15.163Z,101295.28
2023-05-04T03:04:07.168Z,101309.56
2023-05-04T03:06:56.469Z,101291.91
2023-05-04T03:09:47.752Z,101255.25
2023-05-04T03:12:37.428Z,101293.00
2023-05-04T03:15:27.058Z,101287.63
2023-05-04T03:18:16.571Z,101279.72
2023-05-04T03:21:08.061Z,101280.00
2023-05-04T03:23:59.616Z,101274.03
2023-05-04T03:26:49.853Z,101261.06
2023-05-04T03:29:39.614Z,101248.72
2023-05-04T03:32:29.077Z,101248.28
2023-05-04T03:35:24.273Z,101249.69
2023-05-04T03:38:16.837Z,101240.00
2023-05-04T03:41:06.277Z,101233.06
2023-05-04T03:43:55.552Z,101171.63
2023-05-04T03:46:44.957Z,101229.69
2023-05-04T03:49:35.530Z,101215.16
2023-05-04T03:52:24.800Z,101213.72
2023-05-04T03:55:15.585Z,101215.81
2023-05-04T03:58:08.116Z,101200.97
2023-05-04T04:00:57.635Z,101206.34
2023-05-04T04:03:47.454Z,101194.47
2023-05-04T04:06:36.868Z,101200.97
2023-05-04T04:09:26.202Z,101190.09
2023-05-04T04:12:18.531Z,101194.47
2023-05-04T04:15:09.577Z,101188.38
2023-05-04T04:17:58.862Z,101188.38
2023-05-04T04:20:48.403Z,101189.34
2023-05-04T04:23:37.716Z,101188.56
2023-05-04T04:26:27.238Z,101137.50
2023-05-04T04:29:18.177Z,101156.72
2023-05-04T04:32:08.652Z,101175.47
2023-05-04T04:34:58.272Z,101168.16
2023-05-04T04:37:47.555Z,101165.09
2023-05-04T04:40:37.554Z,101154.78
2023-05-04T04:43:27.007Z,101158.22
2023-05-04T04:46:17.631Z,101152.66
2023-05-04T04:49:07.332Z,101153.47
2023-05-04T04:51:57.082Z,101149.94
2023-05-04T04:54:46.736Z,101145.25
2023-05-04T04:57:35.964Z,101144.94
2023-05-04T05:00:26.287Z,101140.25
2023-05-04T05:03:17.305Z,101150.59
2023-05-04T05:06:06.599Z,101150.59
2023-05-04T05:08:55.976Z,101144.13
2023-05-04T05:11:45.261Z,101152.41
2023-05-04T05:14:35.372Z,101140.00
2023-05-04T05:17:24.791Z,101151.47
2023-05-04T05:20:15.550Z,101150.53
2023-05-04T05:23:05.438Z,101144.59
2023-05-04T05:25:56.002Z,101139.59
2023-05-04T05:28:45.468Z,101122.66
2023-05-04T05:31:34.895Z,101125.63
2023-05-04T05:34:24.271Z,101130.50
2023-05-04T05:37:15.033Z,101105.53
2023-05-04T05:40:07.988Z,101132.28
2023-05-04T05:42:57.228Z,101133.28
2023-05-04T05:45:46.520Z,101130.22
2023-05-04T05:48:36.162Z,101134.09
2023-05-04T05:51:25.484Z,101130.09
2023-05-04T05:54:16.626Z,101131.59
2023-05-04T05:57:05.893Z,101104.22
2023-05-04T05:59:55.360Z,101120.13
2023-05-04T06:02:44.704Z,101120.78
2023-05-04T06:05:36.076Z,101105.44
2023-05-04T06:08:25.377Z,101106.13
2023-05-04T06:11:16.047Z,101097.09
2023-05-04T06:14:05.264Z,101102.41
2023-05-04T06:16:54.668Z,101094.97
2023-05-04T06:19:43.903Z,101085.25
2023-05-04T06:22:33.728Z,101087.25
2023-05-04T06:25:22.973Z,101078.38
2023-05-04T06:28:13.541Z,101074.47
2023-05-04T06:31:03.712Z,101063.63
2023-05-04T06:33:53.083Z,101059.13
2023-05-04T06:36:42.466Z,101072.88
2023-05-04T06:39:31.796Z,101057.06
2023-05-04T06:42:21.052Z,101063.84
2023-05-04T06:45:13.860Z,101060.28
2023-05-04T06:48:03.205Z,101069.34
2023-05-04T06:50:52.528Z,101060.28
2023-05-04T06:53:41.804Z,101062.91
2023-05-04T06:56:31.205Z,101062.72
2023-05-04T06:59:20.794Z,101054.47
2023-05-04T07:02:11.516Z,101063.84
2023-05-04T07:05:00.856Z,101050.94
2023-05-04T07:07:51.375Z,101055.28
2023-05-04T07:10:41.408Z,101039.44
2023-05-04T07:13:30.823Z,101055.28
2023-05-04T07:16:20.035Z,101048.34
2023-05-04T07:19:10.908Z,101049.63
2023-05-04T07:22:00.875Z,101052.72
2023-05-04T07:24:50.224Z,101041.41
2023-05-04T07:27:39.926Z,101039.44
2023-05-04T07:30:29.415Z,101048.16
2023-05-04T07:33:18.877Z,101041.25
2023-05-04T07:36:10.142Z,101046.56
2023-05-04T07:38:59.414Z,101040.91
2023-05-04T07:41:51.673Z,101031.03
2023-05-04T07:44:41.466Z,101041.25
2023-05-04T07:47:30.855Z,101034.59
2023-05-04T07:50:20.925Z,101036.06
2023-05-04T07:53:11.687Z,100970.09
2023-05-04T07:56:10.421Z,101023.22
2023-05-04T07:58:59.845Z,101018.03
2023-05-04T08:01:49.188Z,100975.72
2023-05-04T08:04:38.494Z,100986.84
2023-05-04T08:07:28.458Z,100988.59
2023-05-04T08:10:19.324Z,100971.31
2023-05-04T08:13:09.027Z,100980.50
2023-05-04T08:16:01.380Z,100984.19
2023-05-04T08:18:50.841Z,100974.19
2023-05-04T08:21:41.000Z,100991.19
2023-05-04T08:24:31.619Z,100992.78
2023-05-04T08:27:22.476Z,100994.22
2023-05-04T08:30:12.551Z,100986.75
2023-05-04T08:33:01.839Z,100996.22
2023-05-04T08:35:51.810Z,100983.28
2023-05-04T08:38:41.252Z,100996.72
2023-05-04T08:41:30.935Z,101002.50
2023-05-04T08:44:23.263Z,100996.19
2023-05-04T08:47:12.530Z,100988.72
2023-05-04T08:50:02.062Z,100982.47
2023-05-04T08:52:53.685Z,100970.88
2023-05-04T08:55:45.252Z,100966.66
2023-05-04T08:58:38.135Z,100959.69
2023-05-04T09:01:29.697Z,100962.75
2023-05-04T09:04:20.189Z,100963.66
2023-05-04T09:07:09.504Z,100962.59
2023-05-04T09:09:59.806Z,100962.44
2023-05-04T09:12:50.426Z,100963.47
2023-05-04T09:15:39.694Z,100964.66
2023-05-04T09:18:40.824Z,100957.50
2023-05-04T09:21:31.420Z,100958.00
2023-05-04T09:24:30.655Z,100939.19
2023-05-04T09:27:19.956Z,100889.06
2023-05-04T09:30:11.467Z,100945.28
2023-05-04T09:33:01.012Z,100938.31
2023-05-04T09:35:51.773Z,100942.53
2023-05-04T09:38:41.507Z,100941.19
2023-05-04T09:41:34.662Z,100931.13
2023-05-04T09:44:29.469Z,100936.50
2023-05-04T09:47:19.178Z,100941.91
2023-05-04T09:50:19.835Z,100951.88
2023-05-04T09:53:12.061Z,100954.59
2023-05-04T09:56:11.757Z,100943.16
2023-05-04T09:59:01.290Z,100923.06
2023-05-04T10:01:51.540Z,100926.31
2023-05-04T10:04:43.271Z,100935.72
2023-05-04T10:07:33.074Z,100923.44
2023-05-04T10:10:24.056Z,100907.72
2023-05-04T10:13:13.943Z,100917.09
2023-05-04T10:16:24.620Z,100927.69
2023-05-04T10:19:40.862Z,100914.81
2023-05-04T10:22:53.618Z,100909.91
2023-05-04T10:26:33.421Z,100903.53
2023-05-04T10:29:25.135Z,100897.31
2023-05-04T10:32:22.223Z,100898.59
2023-05-04T10:35:12.641Z,100892.47
2023-05-04T10:38:02.273Z,100894.88
2023-05-04T10:40:53.792Z,100883.53
2023-05-04T10:43:49.140Z,100882.47
2023-05-04T10:46:38.734Z,100883.03
2023-05-04T10:49:28.036Z,100853.03
2023-05-04T10:52:18.306Z,100860.81
2023-05-04T10:55:09.115Z,100858.03
2023-05-04T10:57:58.857Z,100864.03
2023-05-04T11:00:51.789Z,100852.13
2023-05-04T11:03:41.854Z,100839.44
2023-05-04T11:06:31.388Z,100852.09
2023-05-04T11:09:21.038Z,100850.72
2023-05-04T11:12:11.578Z,100842.53
2023-05-04T11:15:11.399Z,100847.84
2023-05-04T11:18:02.080Z,100846.22
2023-05-04T11:20:51.275Z,100845.31
2023-05-04T11:23:40.586Z,100830.25
2023-05-04T11:26:30.100Z,100825.75
2023-05-04T11:29:20.452Z,100830.91
2023-05-04T11:32:09.766Z,100822.94
2023-05-04T11:35:00.508Z,100820.44
2023-05-04T11:37:50.729Z,100822.34
2023-05-04T11:40:41.387Z,100830.59
2023-05-04T11:43:31.826Z,100818.22
2023-05-04T11:46:21.434Z,100799.09
2023-05-04T11:49:10.808Z,100809.44
2023-05-04T11:52:09.183Z,100788.69
2023-05-04T11:54:59.057Z,100805.00
2023-05-04T11:57:59.059Z,100795.72
2023-05-04T12:00:50.082Z,100787.47
2023-05-04T12:03:53.003Z,100777.63
2023-05-04T12:06:43.519Z,100775.59
2023-05-04T12:09:44.657Z,100708.75
2023-05-04T12:12:37.700Z,100789.19
2023-05-04T12:15:31.470Z,100775.81
2023-05-04T12:18:29.772Z,100776.69
2023-05-04T12:21:21.630Z,100764.28
2023-05-04T12:24:11.242Z,100756.69
2023-05-04T12:27:02.280Z,100759.50
2023-05-04T12:29:51.780Z,100755.31
2023-05-04T12:32:41.231Z,100747.56
2023-05-04T12:35:30.854Z,100749.44
2023-05-04T12:38:20.570Z,100753.94
2023-05-04T12:41:11.077Z,100737.53
2023-05-04T12:44:01.852Z,100750.97
2023-05-04T12:46:51.694Z,100747.66
2023-05-04T12:49:41.060Z,100750.22
2023-05-04T12:52:30.428Z,100748.38
2023-05-04T12:55:19.717Z,100754.25
2023-05-04T12:58:09.069Z,100749.41
2023-05-04T13:01:00.266Z,100746.22
2023-05-04T13:03:49.725Z,100741.63
2023-05-04T13:06:39.333Z,100723.47
2023-05-04T13:09:28.994Z,100728.75
2023-05-04T13:12:18.469Z,100718.09
2023-05-04T13:15:09.530Z,100723.59
2023-05-04T13:18:00.370Z,100725.09
2023-05-04T13:20:50.762Z,100711.41
2023-05-04T13:23:40.086Z,100703.59
2023-05-04T13:26:29.474Z,100707.84
2023-05-04T13:29:18.773Z,100699.66
2023-05-04T13:32:08.064Z,100694.72
2023-05-04T13:34:58.932Z,100678.72
2023-05-04T13:37:48.358Z,100681.25
2023-05-04T13:40:37.730Z,100665.06
2023-05-04T13:43:30.698Z,100641.00
2023-05-04T13:46:20.292Z,100656.50
2023-05-04T13:49:09.657Z,100656.31
2023-05-04T13:52:00.707Z,100649.94
2023-05-04T13:54:50.140Z,100653.50
2023-05-04T13:57:39.787Z,100627.38
2023-05-04T14:00:29.119Z,100633.69
2023-05-04T14:03:18.527Z,100623.81
2023-05-04T14:06:08.402Z,100605.53
2023-05-04T14:08:59.020Z,100607.38
2023-05-04T14:11:48.707Z,100588.38
2023-05-04T14:14:38.162Z,100569.16
2023-05-04T14:17:27.445Z,100586.94
2023-05-04T14:20:17.294Z,100583.03
2023-05-04T14:23:06.528Z,100581.19
2023-05-04T14:25:57.281Z,100573.44
2023-05-04T14:28:46.616Z,100572.00
2023-05-04T14:31:35.828Z,100566.50
2023-05-04T14:34:25.711Z,100553.88
2023-05-04T14:37:15.101Z,100559.75
2023-05-04T14:40:06.537Z,100550.03
2023-05-04T14:42:59.749Z,100531.56
2023-05-04T14:45:48.855Z,100535.13
2023-05-04T14:48:38.281Z,100522.00
2023-05-04T14:51:30.163Z,100527.06
2023-05-04T14:54:19.685Z,100514.06
2023-05-04T14:57:09.362Z,100507.84
2023-05-04T15:00:00.054Z,100505.44
2023-05-04T15:02:49.540Z,100493.66
2023-05-04T15:05:38.964Z,100504.88
2023-05-04T15:08:28.185Z,100496.19
2023-05-04T15:11:19.312Z,100493.09
2023-05-04T15:14:08.678Z,100499.41
2023-05-04T15:16:59.471Z,100499.31
2023-05-04T15:19:48.760Z,100514.50
2023-05-04T15:22:38.050Z,100506.78
2023-05-04T15:25:27.558Z,100483.56
2023-05-04T15:28:16.777Z,100474.78
2023-05-04T15:31:07.502Z,100461.06
2023-05-04T15:33:58.184Z,100476.81
2023-05-04T15:36:47.830Z,100466.44
2023-05-04T15:39:37.339Z,100466.53
2023-05-04T15:42:26.763Z,100468.50
2023-05-04T15:45:16.525Z,100459.88
2023-05-04T15:48:06.563Z,100470.06
2023-05-04T15:50:57.372Z,100442.41
2023-05-04T15:53:46.851Z,100454.13
2023-05-04T15:56:36.605Z,100461.38
2023-05-04T15:59:25.885Z,100461.00
2023-05-04T16:02:15.096Z,100463.25
2023-05-04T16:05:04.831Z,100460.88
2023-05-04T16:07:55.882Z,100432.56
2023-05-04T16:10:45.125Z,100455.50
2023-05-04T16:13:35.265Z,100440.31
2023-05-04T16:16:26.697Z,100437.69
2023-05-04T16:19:16.054Z,100438.50
2023-05-04T16:22:05.360Z,100421.19
2023-05-04T16:24:56.108Z,100437.38
2023-05-04T16:27:45.514Z,100427.53
2023-05-04T16:30:35.392Z,100433.84
2023-05-04T16:33:26.833Z,100436.94
2023-05-04T16:36:16.158Z,100429.59
2023-05-04T16:39:05.780Z,100418.25
2023-05-04T16:41:56.431Z,100420.78
2023-05-04T16:44:45.967Z,100416.44
2023-05-04T16:47:35.328Z,100410.00
2023-05-04T16:50:24.767Z,100405.50
2023-05-04T16:53:14.285Z,100421.81
2023-05-04T16:56:03.666Z,100414.13
2023-05-04T16:58:54.349Z,100406.31
2023-05-04T17:01:44.091Z,100403.00
2023-05-04T17:04:33.440Z,100407.59
2023-05-04T17:07:22.825Z,100387.19
2023-05-04T17:10:13.702Z,100397.53
2023-05-04T17:13:02.998Z,100387.22
2023-05-04T17:15:53.721Z,100385.38
2023-05-04T17:18:43.022Z,100393.19
2023-05-04T17:21:32.971Z,100381.59
2023-05-04T17:24:22.222Z,100381.59
2023-05-04T17:27:11.595Z,100370.25
2023-05-04T17:30:00.848Z,100378.94
2023-05-04T17:32:52.589Z,100377.13
2023-05-04T17:35:41.980Z,100370.56
2023-05-04T17:38:31.229Z,100363.13
2023-05-04T17:41:20.755Z,100364.81
2023-05-04T17:44:10.380Z,100353.00
2023-05-04T17:47:00.312Z,100338.59
2023-05-04T17:49:51.283Z,100340.88
2023-05-04T17:52:40.678Z,100343.16
2023-05-04T17:55:30.217Z,100345.31
2023-05-04T17:58:19.503Z,100343.47
2023-05-04T18:01:08.799Z,100343.38
2023-05-04T18:03:58.624Z,100338.28
2023-05-04T18:06:50.790Z,100341.72
2023-05-04T18:09:40.357Z,100335.63
2023-05-04T18:12:29.640Z,100335.88
2023-05-04T18:15:19.054Z,100329.81
2023-05-04T18:18:08.337Z,100324.00
2023-05-04T18:21:00.922Z,100318.72
2023-05-04T18:23:51.950Z,100319.06
2023-05-04T18:26:41.258Z,100309.66
2023-05-04T18:29:31.029Z,100309.22
2023-05-04T18:32:20.434Z,100311.38
2023-05-04T18:35:10.789Z,100303.47
2023-05-04T18:38:00.156Z,100315.88
2023-05-04T18:40:54.566Z,100308.56
2023-05-04T18:43:43.916Z,100311.75
2023-05-04T18:46:33.215Z,100300.78
2023-05-04T18:49:22.645Z,100309.94
2023-05-04T18:52:12.108Z,100297.00
2023-05-04T18:55:01.420Z,100301.94
2023-05-04T18:57:52.311Z,100299.53
2023-05-04T19:00:43.703Z,100301.94
2023-05-04T19:03:33.801Z,100297.56
2023-05-04T19:06:23.054Z,100295.53
2023-05-04T19:09:14.465Z,100296.56
2023-05-04T19:12:04.064Z,100290.81
2023-05-04T19:14:55.914Z,100293.34
2023-05-04T19:17:45.205Z,100281.91
2023-05-04T19:20:34.568Z,100289.00
2023-05-04T19:23:25.044Z,100291.41
2023-05-04T19:26:14.225Z,100291.41
2023-05-04T19:29:03.754Z,100295.31
2023-05-04T19:31:54.424Z,100285.69
2023-05-04T19:34:44.087Z,100285.09
2023-05-04T19:37:34.042Z,100283.84
2023-05-04T19:40:23.447Z,100288.53
2023-05-04T19:43:12.717Z,100276.59
2023-05-04T19:46:03.743Z,100270.31
2023-05-04T19:48:54.726Z,100261.88
2023-05-04T19:51:43.949Z,100265.88
2023-05-04T19:54:34.202Z,100271.22
2023-05-04T19:57:23.666Z,100268.47
2023-05-04T20:00:17.213Z,100266.44
2023-05-04T20:03:07.853Z,100257.94
2023-05-04T20:05:58.691Z,100266.63
2023-05-04T20:08:47.952Z,100268.94
2023-05-04T20:11:38.267Z,100262.28
2023-05-04T20:14:27.681Z,100267.97
2023-05-04T20:17:17.109Z,100263.38
2023-05-04T20:20:08.731Z,100250.34
2023-05-04T20:22:59.652Z,100254.56
2023-05-04T20:25:48.964Z,100266.34
2023-05-04T20:28:38.222Z,100257.03
2023-05-04T20:31:27.610Z,100251.53
2023-05-04T20:34:18.895Z,100244.69
2023-05-04T20:37:08.435Z,100250.09
2023-05-04T20:39:59.137Z,100248.81
2023-05-04T20:42:48.522Z,100241.59
2023-05-04T20:45:37.735Z,100245.50
2023-05-04T20:48:27.070Z,100228.44
2023-05-04T20:51:16.353Z,100229.38
2023-05-04T20:54:05.858Z,100230.19
2023-05-04T20:56:56.472Z,100217.59
2023-05-04T20:59:45.636Z,100205.22
2023-05-04T21:02:35.271Z,100204.53
2023-05-04T21:05:24.828Z,100201.34
2023-05-04T21:08:14.128Z,100198.25
2023-05-04T21:11:03.386Z,100187.97
2023-05-04T21:13:54.686Z,100190.00
2023-05-04T21:16:43.942Z,100172.16
2023-05-04T21:19:33.211Z,100171.59
2023-05-04T21:22:22.453Z,100153.53
2023-05-04T21:25:11.652Z,100157.44
2023-05-04T21:28:00.915Z,100161.88
2023-05-04T21:30:51.601Z,100165.66
2023-05-04T21:33:40.969Z,100160.78
2023-05-04T21:36:30.233Z,100159.75
2023-05-04T21:39:19.464Z,100157.47
2023-05-04T21:42:08.779Z,100160.22
2023-05-04T21:44:58.487Z,100159.06
2023-05-04T21:47:49.231Z,100148.53
2023-05-04T21:50:38.566Z,100145.78
2023-05-04T21:53:33.166Z,100134.34
2023-05-04T21:56:22.525Z,100131.94
2023-05-04T21:59:12.018Z,100117.19
2023-05-04T22:02:01.658Z,100129.34
2023-05-04T22:04:52.717Z,100113.66
2023-05-04T22:07:41.999Z,100108.50
2023-05-04T22:10:31.480Z,100109.84
2023-05-04T22:13:21.386Z,100105.50
2023-05-04T22:16:10.751Z,100108.84
2023-05-04T22:19:00.664Z,100102.56
2023-05-04T22:21:51.324Z,100109.63
2023-05-04T22:24:40.764Z,100101.84
2023-05-04T22:27:30.209Z,100090.75
2023-05-04T22:30:21.520Z,100103.44
2023-05-04T22:33:10.792Z,100104.38
2023-05-04T22:36:00.168Z,100097.16
2023-05-04T22:38:52.872Z,100094.06
2023-05-04T22:41:42.140Z,100093.81
2023-05-04T22:44:31.484Z,100088.78
2023-05-04T22:47:20.821Z,100097.13
2023-05-04T22:50:11.621Z,100074.69
2023-05-04T22:53:00.930Z,100088.19
2023-05-04T22:55:51.752Z,100091.75
2023-05-04T22:58:41.018Z,100086.59
2023-05-04T23:01:31.011Z,100075.97
2023-05-04T23:04:20.880Z,100083.06
2023-05-04T23:07:10.672Z,100077.88
2023-05-04T23:10:00.289Z,100074.25
2023-05-04T23:12:53.193Z,100065.56
2023-05-04T23:15:42.535Z,100071.13
2023-05-04T23:18:33.344Z,100059.25
2023-05-04T23:21:22.871Z,100068.50
2023-05-04T23:24:12.485Z,100068.97
2023-05-04T23:27:02.316Z,100070.00
2023-05-04T23:29:53.393Z,100061.66
2023-05-04T23:32:42.638Z,100062.09
2023-05-04T23:35:32.858Z,100060.84
2023-05-04T23:38:22.893Z,100067.03
2023-05-04T23:41:12.746Z,100049.66
2023-05-04T23:44:02.146Z,100046.00
2023-05-04T23:46:52.746Z,100038.91
2023-05-04T23:49:42.025Z,100031.72
2023-05-04T23:52:31.559Z,100024.06
2023-05-04T23:55:21.176Z,100033.41
2023-05-04T23:58:10.414Z,100027.47
